Time;durP1;ratioP1;P1;durP2;ratioP2;P2;SDS_P1;SDS_P2;PMS_P1;PMS_P2;Temp;Humidity;BMP_temperature;BMP_pressure;BME280_temperature;BME280_humidity;BME280_pressure;Samples;Min_cycle;Max_cycle;Signal;HPM_P1;HPM_P2
2023/12/07 00:02:13;;;;;;;6.12;3.03;;;5.70;71.20;;;;;;2331274;55;21420;-70
2023/12/07 00:04:40;;;;;;;5.78;3.20;;;5.70;71.20;;;;;;2330940;55;21815;-68
2023/12/07 00:07:09;;;;;;;5.97;3.17;;;5.70;71.20;;;;;;2575607;53;21879;-68
2023/12/07 00:09:37;;;;;;;5.60;3.00;;;5.70;71.20;;;;;;2330916;55;20946;-69
2023/12/07 00:12:03;;;;;;;5.87;3.50;;;5.70;71.20;;;;;;2310759;54;21374;-68
2023/12/07 00:14:30;;;;;;;7.70;3.80;;;5.60;71.20;;;;;;2329075;54;21506;-68
2023/12/07 00:16:57;;;;;;;5.12;3.10;;;5.70;71.40;;;;;;2331634;55;21823;-71
2023/12/07 00:19:23;;;;;;;6.12;3.08;;;5.60;71.30;;;;;;2331769;54;21487;-69
2023/12/07 00:21:49;;;;;;;5.65;3.20;;;5.60;71.30;;;;;;2575166;53;21022;-68
2023/12/07 00:24:16;;;;;;;5.68;3.00;;;5.60;71.30;;;;;;2574803;53;21880;-69
2023/12/07 00:26:42;;;;;;;5.25;3.00;;;5.60;71.30;;;;;;2330948;54;20955;-68
2023/12/07 00:29:08;;;;;;;5.85;3.15;;;5.60;71.40;;;;;;2568093;53;21028;-69
2023/12/07 00:31:35;;;;;;;5.12;2.87;;;5.60;71.40;;;;;;2309913;54;20982;-67
2023/12/07 00:34:13;;;;;;;5.82;3.20;;;5.60;71.40;;;;;;2310840;54;21485;-69
2023/12/07 00:36:40;;;;;;;5.70;2.83;;;5.60;71.40;;;;;;2330900;54;20974;-70
2023/12/07 00:39:07;;;;;;;6.03;3.47;;;5.50;71.40;;;;;;2331769;55;21226;-67
2023/12/07 00:41:33;;;;;;;6.32;3.17;;;5.60;71.40;;;;;;2574617;53;20966;-68
2023/12/07 00:43:59;;;;;;;5.55;2.40;;;5.60;71.40;;;;;;2575157;53;21085;-69
2023/12/07 00:46:27;;;;;;;5.47;3.12;;;5.50;71.20;;;;;;2311409;54;20999;-71
2023/12/07 00:48:53;;;;;;;5.95;3.22;;;5.50;71.10;;;;;;2570164;53;20955;-69
2023/12/07 00:51:19;;;;;;;7.22;3.17;;;5.50;70.90;;;;;;2570349;53;21828;-68
2023/12/07 00:53:46;;;;;;;5.40;2.85;;;5.50;70.80;;;;;;2330610;54;21468;-70
2023/12/07 00:56:15;;;;;;;5.12;2.90;;;5.50;70.70;;;;;;2575597;53;21523;-67
2023/12/07 00:58:41;;;;;;;6.75;2.90;;;5.40;70.50;;;;;;2331377;55;20959;-68
2023/12/07 01:01:08;;;;;;;4.80;2.50;;;5.40;70.50;;;;;;2331796;55;20955;-67
2023/12/07 01:03:34;;;;;;;5.95;3.22;;;5.40;70.50;;;;;;2330877;55;20862;-68
2023/12/07 01:06:00;;;;;;;5.50;3.15;;;5.30;70.20;;;;;;2575488;53;20943;-71
2023/12/07 01:08:27;;;;;;;6.53;3.35;;;5.30;70.20;;;;;;2574950;53;20986;-68
2023/12/07 01:10:53;;;;;;;6.07;3.45;;;5.20;70.20;;;;;;2331649;55;20993;-68
2023/12/07 01:13:19;;;;;;;6.30;2.75;;;5.20;70.20;;;;;;2540016;53;21845;-68
2023/12/07 01:15:46;;;;;;;5.53;3.10;;;5.20;70.20;;;;;;2574054;53;21026;-70
2023/12/07 01:18:12;;;;;;;5.43;3.20;;;5.10;70.00;;;;;;2574978;53;21006;-68
2023/12/07 01:20:39;;;;;;;5.97;3.30;;;5.10;70.00;;;;;;2330745;55;20951;-70
2023/12/07 01:23:06;;;;;;;5.28;2.95;;;5.10;70.00;;;;;;2575399;53;20961;-68
2023/12/07 01:25:32;;;;;;;5.32;3.20;;;5.00;70.00;;;;;;2574749;53;21410;-67
2023/12/07 01:27:59;;;;;;;5.75;3.10;;;5.00;69.90;;;;;;2573008;53;20978;-69
2023/12/07 01:30:26;;;;;;;7.25;3.80;;;4.90;69.70;;;;;;2575141;53;21073;-68
2023/12/07 01:32:52;;;;;;;5.53;3.35;;;4.90;69.70;;;;;;2330814;55;20946;-67
2023/12/07 01:35:19;;;;;;;6.43;3.50;;;4.90;69.80;;;;;;2575079;53;21042;-67
2023/12/07 01:37:46;;;;;;;6.53;3.25;;;4.80;69.80;;;;;;2329793;55;20931;-68
2023/12/07 01:40:14;;;;;;;5.82;3.08;;;4.80;69.80;;;;;;2331236;55;21006;-68
2023/12/07 01:42:48;;;;;;;5.60;2.97;;;4.80;69.70;;;;;;2333185;54;21423;-69
2023/12/07 01:45:17;;;;;;;5.55;3.03;;;4.70;69.60;;;;;;2570842;53;20942;-69
2023/12/07 01:47:43;;;;;;;4.70;2.58;;;4.70;69.70;;;;;;2568788;53;21890;-68
2023/12/07 01:50:10;;;;;;;6.50;3.55;;;4.60;69.70;;;;;;2309464;55;21082;-68
2023/12/07 01:52:38;;;;;;;6.50;3.30;;;4.60;69.90;;;;;;2572615;53;20969;-68
2023/12/07 01:55:13;;;;;;;7.20;3.28;;;4.60;70.20;;;;;;2322619;54;21079;-68
2023/12/07 01:57:39;;;;;;;5.60;2.97;;;4.50;70.30;;;;;;2302666;54;20961;-69
2023/12/07 02:00:07;;;;;;;7.50;3.03;;;4.50;70.50;;;;;;2328957;54;20987;-69
2023/12/07 02:02:34;;;;;;;4.93;2.72;;;4.50;70.70;;;;;;2538951;53;21021;-70
2023/12/07 02:05:00;;;;;;;4.78;2.60;;;4.50;70.80;;;;;;2574342;53;20975;-69
2023/12/07 02:07:26;;;;;;;6.43;2.97;;;4.50;71.00;;;;;;2330866;54;20990;-67
2023/12/07 02:09:53;;;;;;;6.22;2.75;;;4.50;71.00;;;;;;2576306;53;20966;-68
2023/12/07 02:12:21;;;;;;;5.40;2.70;;;4.50;70.90;;;;;;2308100;55;20953;-68
2023/12/07 02:14:47;;;;;;;4.70;2.58;;;4.50;70.80;;;;;;2547433;54;21273;-67
2023/12/07 02:17:35;;;;;;;4.40;2.50;;;4.50;70.70;;;;;;2541055;54;25313;-70
2023/12/07 02:20:07;;;;;;;5.68;2.45;;;4.40;70.50;;;;;;2545370;54;20922;-70
2023/12/07 02:22:42;;;;;;;4.55;2.45;;;4.40;70.40;;;;;;2300614;54;21158;-68
2023/12/07 02:25:11;;;;;;;5.32;2.90;;;4.40;70.40;;;;;;2308462;54;22310;-68
2023/12/07 02:27:40;;;;;;;5.60;3.10;;;4.40;70.40;;;;;;2304832;55;21032;-69
2023/12/07 02:30:07;;;;;;;5.82;3.37;;;4.40;70.40;;;;;;2304211;54;21030;-67
2023/12/07 02:32:34;;;;;;;5.43;3.00;;;4.30;70.30;;;;;;2548122;53;21033;-69
2023/12/07 02:35:00;;;;;;;7.85;3.62;;;4.30;70.30;;;;;;2334613;54;21441;-67
2023/12/07 02:37:30;;;;;;;5.03;3.17;;;4.30;70.30;;;;;;2335627;55;20975;-69
2023/12/07 02:39:56;;;;;;;6.72;3.28;;;4.30;70.20;;;;;;2559631;53;20925;-70
2023/12/07 02:42:26;;;;;;;5.40;2.90;;;4.30;70.30;;;;;;2308105;55;21249;-69
2023/12/07 02:44:53;;;;;;;5.87;3.15;;;4.30;70.30;;;;;;2506656;54;20975;-69
2023/12/07 02:47:19;;;;;;;5.85;3.10;;;4.30;70.20;;;;;;2513164;54;21972;-69
2023/12/07 02:49:45;;;;;;;6.97;3.65;;;4.20;70.10;;;;;;2286793;55;21030;-69
2023/12/07 02:52:12;;;;;;;5.90;2.97;;;4.20;70.10;;;;;;2536285;53;20939;-69
2023/12/07 02:54:38;;;;;;;6.18;3.22;;;4.20;70.10;;;;;;2536808;53;21577;-69
2023/12/07 02:57:04;;;;;;;5.85;3.10;;;4.10;70.10;;;;;;2541760;53;21019;-68
2023/12/07 02:59:31;;;;;;;6.15;3.00;;;4.10;70.10;;;;;;2287054;55;20988;-67
2023/12/07 03:01:57;;;;;;;6.45;2.72;;;4.10;70.20;;;;;;2547550;53;20953;-69
2023/12/07 03:04:23;;;;;;;4.70;2.80;;;4.10;70.20;;;;;;2308538;55;21035;-67
2023/12/07 03:06:53;;;;;;;4.72;2.40;;;4.10;70.20;;;;;;2309620;54;20997;-66
2023/12/07 03:09:19;;;;;;;5.50;3.00;;;4.10;70.20;;;;;;2557056;53;20942;-68
2023/12/07 03:11:46;;;;;;;8.02;4.05;;;4.10;70.30;;;;;;2510045;54;20979;-66
2023/12/07 03:14:12;;;;;;;7.78;3.10;;;4.10;70.30;;;;;;2522202;53;21126;-67
2023/12/07 03:16:39;;;;;;;4.70;2.53;;;4.00;70.30;;;;;;2301978;54;21019;-66
2023/12/07 03:19:05;;;;;;;5.85;3.10;;;4.00;70.30;;;;;;2524150;54;20979;-69
2023/12/07 03:21:32;;;;;;;5.70;3.12;;;4.00;70.30;;;;;;2296846;54;20964;-66
2023/12/07 03:23:58;;;;;;;7.50;2.62;;;4.00;70.40;;;;;;2558579;53;20984;-68
2023/12/07 03:26:25;;;;;;;4.57;2.50;;;4.00;70.40;;;;;;2311652;55;21006;-67
2023/12/07 03:28:52;;;;;;;4.25;2.55;;;4.00;70.40;;;;;;2543106;53;20951;-65
2023/12/07 03:31:18;;;;;;;5.70;3.15;;;4.00;70.30;;;;;;2331382;55;21287;-67
2023/12/07 03:33:45;;;;;;;5.45;3.28;;;3.90;70.30;;;;;;2575117;53;20951;-67
2023/12/07 03:36:12;;;;;;;6.35;3.45;;;3.90;70.30;;;;;;2575397;53;20947;-68
2023/12/07 03:38:38;;;;;;;7.20;4.12;;;3.90;70.30;;;;;;2331356;55;20985;-69
2023/12/07 03:41:05;;;;;;;5.65;3.33;;;3.90;70.30;;;;;;2575293;53;20934;-68
2023/12/07 03:43:31;;;;;;;6.18;3.00;;;3.90;70.40;;;;;;2574974;53;21017;-66
2023/12/07 03:45:57;;;;;;;6.37;3.67;;;3.90;70.40;;;;;;2331621;55;21033;-67
2023/12/07 03:48:24;;;;;;;4.90;2.60;;;3.90;70.40;;;;;;2331620;55;20970;-67
2023/12/07 03:50:50;;;;;;;5.35;3.00;;;3.90;70.30;;;;;;2538201;53;20917;-69
2023/12/07 03:53:17;;;;;;;7.93;3.87;;;3.90;70.40;;;;;;2572510;53;21003;-66
2023/12/07 03:55:46;;;;;;;5.93;3.40;;;3.80;70.40;;;;;;2574927;53;20950;-68
2023/12/07 03:58:13;;;;;;;6.37;3.40;;;3.90;70.60;;;;;;2575598;53;20982;-66
2023/12/07 04:00:39;;;;;;;6.20;3.22;;;3.90;70.70;;;;;;2330109;55;21048;-68
2023/12/07 04:03:06;;;;;;;5.50;3.12;;;3.80;70.60;;;;;;2575136;53;21729;-66
2023/12/07 04:05:33;;;;;;;6.10;3.17;;;3.90;70.80;;;;;;2575300;53;21514;-66
2023/12/07 04:08:01;;;;;;;6.47;3.42;;;3.90;70.80;;;;;;2331543;55;20966;-67
2023/12/07 04:10:27;;;;;;;6.80;3.60;;;3.90;70.80;;;;;;2330817;54;21250;-67
2023/12/07 04:12:54;;;;;;;5.03;2.70;;;3.90;70.90;;;;;;2573848;53;20911;-66
2023/12/07 04:15:20;;;;;;;6.57;3.45;;;3.90;70.90;;;;;;2331140;55;21022;-67
2023/12/07 04:17:46;;;;;;;6.80;3.47;;;3.90;70.90;;;;;;2330869;54;21404;-69
2023/12/07 04:20:13;;;;;;;5.78;2.97;;;3.90;70.80;;;;;;2331787;55;20974;-69
2023/12/07 04:22:40;;;;;;;5.93;2.90;;;3.90;70.70;;;;;;2575255;53;21089;-69
2023/12/07 04:25:07;;;;;;;7.25;2.80;;;3.80;70.50;;;;;;2330806;54;20931;-67
2023/12/07 04:27:33;;;;;;;4.40;2.60;;;3.80;70.40;;;;;;2331040;54;21775;-67
2023/12/07 04:30:00;;;;;;;8.85;3.45;;;3.80;70.20;;;;;;2547546;54;20977;-67
2023/12/07 04:32:27;;;;;;;4.95;2.60;;;3.80;70.10;;;;;;2311905;55;21429;-67
2023/12/07 04:34:54;;;;;;;6.97;2.92;;;3.80;70.20;;;;;;2309859;55;20957;-68
2023/12/07 04:37:20;;;;;;;5.15;2.60;;;3.70;70.20;;;;;;2308123;55;20961;-66
2023/12/07 04:39:47;;;;;;;4.80;2.67;;;3.70;70.20;;;;;;2547211;53;20982;-67
2023/12/07 04:42:13;;;;;;;4.60;2.75;;;3.70;70.10;;;;;;2547155;53;21008;-66
2023/12/07 04:44:40;;;;;;;5.12;2.65;;;3.70;70.10;;;;;;2298463;55;20979;-65
2023/12/07 04:47:06;;;;;;;4.95;2.78;;;3.70;70.10;;;;;;2302372;54;20938;-66
2023/12/07 04:49:33;;;;;;;6.78;3.37;;;3.70;70.10;;;;;;2308327;55;20973;-66
2023/12/07 04:52:02;;;;;;;6.87;3.10;;;3.60;70.10;;;;;;2547127;53;21764;-66
2023/12/07 04:54:28;;;;;;;5.28;2.90;;;3.60;70.10;;;;;;2546402;53;21275;-66
2023/12/07 04:57:03;;;;;;;6.75;3.20;;;3.70;70.20;;;;;;2307325;55;21551;-67
2023/12/07 04:59:30;;;;;;;5.22;2.72;;;3.60;70.00;;;;;;2313868;55;21860;-67
2023/12/07 05:01:56;;;;;;;5.15;2.70;;;3.50;70.00;;;;;;2313153;54;20961;-65
2023/12/07 05:04:23;;;;;;;6.57;2.85;;;3.50;70.00;;;;;;2308569;54;20988;-65
2023/12/07 05:06:49;;;;;;;5.47;3.17;;;3.50;70.10;;;;;;2313279;55;21023;-66
2023/12/07 05:09:15;;;;;;;5.87;2.70;;;3.50;70.10;;;;;;2525148;53;21036;-66
2023/12/07 05:11:42;;;;;;;6.12;3.60;;;3.50;70.10;;;;;;2532621;53;21938;-67
2023/12/07 05:14:08;;;;;;;6.22;3.17;;;3.50;70.10;;;;;;2571350;53;20955;-67
2023/12/07 05:16:35;;;;;;;7.35;3.50;;;3.50;70.10;;;;;;2575761;53;21045;-66
2023/12/07 05:19:50;;;;;;;6.57;3.15;;;3.50;70.20;;;;;;2575055;53;21794;-66
2023/12/07 05:22:17;;;;;;;5.25;3.03;;;3.50;70.00;;;;;;2331461;55;20966;-66
2023/12/07 05:24:47;;;;;;;7.30;3.17;;;3.40;70.10;;;;;;2331138;55;20969;-66
2023/12/07 05:27:14;;;;;;;5.82;3.05;;;3.40;70.10;;;;;;2574463;53;20970;-67
2023/12/07 05:29:40;;;;;;;6.50;3.28;;;3.40;70.10;;;;;;2575087;53;20982;-66
2023/12/07 05:32:07;;;;;;;5.35;3.05;;;3.40;70.10;;;;;;2331619;55;21844;-66
2023/12/07 05:34:35;;;;;;;5.35;2.83;;;3.40;70.10;;;;;;2575450;53;20985;-65
2023/12/07 05:37:01;;;;;;;7.32;4.28;;;3.30;69.90;;;;;;2575739;53;20950;-67
2023/12/07 05:39:28;;;;;;;7.35;4.10;;;3.30;69.90;;;;;;2331370;55;21764;-67
2023/12/07 05:41:54;;;;;;;10.30;4.43;;;3.30;69.80;;;;;;2576374;53;21021;-66
2023/12/07 05:44:21;;;;;;;8.90;4.37;;;3.30;69.80;;;;;;2332145;55;20985;-66
2023/12/07 05:46:48;;;;;;;8.93;4.43;;;3.30;69.90;;;;;;2330927;55;20954;-67
2023/12/07 05:49:17;;;;;;;10.00;5.40;;;3.20;69.90;;;;;;2331639;55;21457;-67
2023/12/07 05:51:43;;;;;;;10.80;6.00;;;3.20;70.00;;;;;;2575695;53;20946;-66
2023/12/07 05:54:10;;;;;;;9.65;4.68;;;3.20;70.10;;;;;;2331700;55;21026;-67
2023/12/07 05:56:36;;;;;;;8.65;4.60;;;3.20;70.00;;;;;;2330771;54;20998;-67
2023/12/07 05:59:03;;;;;;;10.05;5.40;;;3.20;70.10;;;;;;2562246;53;20976;-66
2023/12/07 06:01:30;;;;;;;8.07;4.57;;;3.20;70.00;;;;;;2309666;54;21014;-67
2023/12/07 06:03:56;;;;;;;8.27;4.43;;;3.20;70.00;;;;;;2331027;55;20974;-67
2023/12/07 06:06:23;;;;;;;7.75;4.55;;;3.20;70.00;;;;;;2575383;53;20964;-65
2023/12/07 06:08:49;;;;;;;7.95;4.57;;;3.20;70.00;;;;;;2330923;54;21468;-67
2023/12/07 06:11:15;;;;;;;8.48;4.85;;;3.20;70.00;;;;;;2331138;55;20946;-68
2023/12/07 06:13:42;;;;;;;7.53;4.37;;;3.10;70.00;;;;;;2575348;53;21689;-65
2023/12/07 06:16:12;;;;;;;6.65;4.18;;;3.10;70.00;;;;;;2575539;53;20998;-66
2023/12/07 06:18:38;;;;;;;8.55;4.60;;;3.10;70.00;;;;;;2331547;55;21023;-66
2023/12/07 06:21:14;;;;;;;7.65;4.60;;;3.10;70.00;;;;;;2578382;53;21028;-67
2023/12/07 06:23:41;;;;;;;10.13;4.93;;;3.10;70.00;;;;;;2339644;55;20955;-66
2023/12/07 06:26:09;;;;;;;9.93;5.15;;;3.10;69.90;;;;;;2339933;54;20927;-66
2023/12/07 06:28:38;;;;;;;8.77;4.10;;;3.10;69.80;;;;;;2585563;53;21013;-66
2023/12/07 06:31:08;;;;;;;7.97;4.62;;;3.00;69.80;;;;;;2340846;54;20980;-69
2023/12/07 06:33:37;;;;;;;7.45;3.90;;;3.00;69.80;;;;;;2586292;53;20956;-66
2023/12/07 06:36:03;;;;;;;6.50;3.78;;;3.00;69.80;;;;;;2341104;55;20984;-67
2023/12/07 06:38:30;;;;;;;6.60;3.60;;;3.00;69.80;;;;;;2340798;54;20996;-65
2023/12/07 06:40:58;;;;;;;8.35;3.90;;;3.00;69.80;;;;;;2339233;54;20953;-67
2023/12/07 06:43:24;;;;;;;6.47;3.70;;;3.00;69.90;;;;;;2586362;53;20948;-65
2023/12/07 06:45:51;;;;;;;5.45;3.00;;;3.00;69.90;;;;;;2340649;54;20940;-67
2023/12/07 06:48:18;;;;;;;5.40;2.83;;;2.90;69.80;;;;;;2586486;53;20949;-66
2023/12/07 06:50:49;;;;;;;6.85;3.37;;;2.90;69.80;;;;;;2329907;54;21027;-67
2023/12/07 06:53:16;;;;;;;6.90;3.35;;;2.90;69.70;;;;;;2328674;54;21462;-65
2023/12/07 06:55:43;;;;;;;6.43;3.45;;;2.90;69.60;;;;;;2339522;55;21022;-66
2023/12/07 06:58:11;;;;;;;4.65;2.45;;;2.90;69.80;;;;;;2341159;54;21008;-69
2023/12/07 07:00:37;;;;;;;5.47;2.83;;;2.90;69.80;;;;;;2586373;53;21863;-68
2023/12/07 07:03:04;;;;;;;6.87;3.05;;;2.80;69.70;;;;;;2580203;53;20899;-67
2023/12/07 07:05:31;;;;;;;6.47;3.12;;;2.80;69.60;;;;;;2586004;53;21016;-66
2023/12/07 07:07:58;;;;;;;7.87;3.47;;;2.80;69.50;;;;;;2340698;55;21056;-66
2023/12/07 07:10:24;;;;;;;6.43;3.70;;;2.80;69.60;;;;;;2327614;54;20934;-67
2023/12/07 07:12:51;;;;;;;7.70;3.90;;;2.80;69.70;;;;;;2329659;54;20941;-66
2023/12/07 07:15:20;;;;;;;9.15;4.62;;;2.70;69.70;;;;;;2587071;53;20937;-66
2023/12/07 07:17:47;;;;;;;10.60;4.90;;;2.70;69.80;;;;;;2586813;53;21268;-69
2023/12/07 07:20:13;;;;;;;9.30;4.65;;;2.70;70.00;;;;;;2587253;53;20933;-68
2023/12/07 07:22:40;;;;;;;7.85;4.12;;;2.70;70.10;;;;;;2586629;53;21064;-67
2023/12/07 07:25:09;;;;;;;10.27;5.28;;;2.70;70.10;;;;;;2340449;54;21008;-66
2023/12/07 07:27:35;;;;;;;10.88;5.35;;;2.70;70.00;;;;;;2340446;54;20988;-66
2023/12/07 07:30:04;;;;;;;11.00;5.85;;;2.70;70.00;;;;;;2340865;54;20972;-67
2023/12/07 07:32:30;;;;;;;12.70;5.85;;;2.70;70.00;;;;;;2340520;54;20940;-67
2023/12/07 07:34:57;;;;;;;11.07;5.90;;;2.70;70.00;;;;;;2586635;53;20949;-66
2023/12/07 07:37:24;;;;;;;15.18;6.90;;;2.70;70.00;;;;;;2586582;53;20944;-65
2023/12/07 07:39:50;;;;;;;11.12;5.65;;;2.70;69.90;;;;;;2586633;53;20997;-66
2023/12/07 07:42:16;;;;;;;10.68;5.37;;;2.70;69.90;;;;;;2340602;54;20957;-66
2023/12/07 07:44:44;;;;;;;13.20;5.97;;;2.70;69.90;;;;;;2340721;54;20933;-65
2023/12/07 07:47:10;;;;;;;9.02;4.53;;;2.70;69.80;;;;;;2586640;53;20961;-67
2023/12/07 07:49:37;;;;;;;9.88;4.35;;;2.60;69.80;;;;;;2316280;54;21465;-67
2023/12/07 07:52:05;;;;;;;9.90;5.32;;;2.70;69.90;;;;;;2340142;54;21020;-67
2023/12/07 07:54:31;;;;;;;15.23;7.55;;;2.60;69.80;;;;;;2340517;54;20957;-66
2023/12/07 07:56:57;;;;;;;13.65;7.60;;;2.60;69.90;;;;;;2340372;54;21080;-67
2023/12/07 07:59:25;;;;;;;14.77;7.62;;;2.60;70.00;;;;;;2340490;55;21454;-66
2023/12/07 08:01:52;;;;;;;16.60;7.22;;;2.60;70.20;;;;;;2340151;54;20980;-67
2023/12/07 08:04:18;;;;;;;13.05;6.95;;;2.60;70.30;;;;;;2341068;54;21434;-68
2023/12/07 08:06:44;;;;;;;11.93;6.22;;;2.60;70.50;;;;;;2586241;53;22520;-67
2023/12/07 08:09:11;;;;;;;12.52;6.12;;;2.60;70.60;;;;;;2341041;55;21716;-65
2023/12/07 08:11:38;;;;;;;14.93;6.97;;;2.60;70.70;;;;;;2341602;55;21415;-65
2023/12/07 08:14:04;;;;;;;12.10;6.62;;;2.70;71.00;;;;;;2316630;54;22172;-66
2023/12/07 08:16:30;;;;;;;17.92;8.95;;;2.70;71.10;;;;;;2339565;55;21780;-66
2023/12/07 08:18:58;;;;;;;15.73;9.07;;;2.70;71.20;;;;;;2340678;54;20961;-67
2023/12/07 08:21:25;;;;;;;14.00;8.10;;;2.80;71.30;;;;;;2584252;53;21497;-67
2023/12/07 08:23:52;;;;;;;10.25;6.03;;;2.80;71.40;;;;;;2315340;54;21375;-67
2023/12/07 08:27:08;;;;;;;11.90;6.37;;;2.80;71.50;;;;;;2340627;55;20976;-66
2023/12/07 08:29:37;;;;;;;16.80;7.10;;;2.90;71.50;;;;;;2339900;54;20961;-66
2023/12/07 08:32:04;;;;;;;19.77;6.40;;;2.90;71.60;;;;;;2585924;53;21509;-66
2023/12/07 08:34:30;;;;;;;12.25;6.90;;;2.90;71.70;;;;;;2586080;53;21077;-68
2023/12/07 08:36:57;;;;;;;10.18;5.57;;;3.00;71.70;;;;;;2339575;54;21379;-68
2023/12/07 08:39:25;;;;;;;13.73;6.32;;;3.00;71.70;;;;;;2341325;55;20936;-68
2023/12/07 08:41:52;;;;;;;16.37;7.18;;;3.10;71.80;;;;;;2585213;53;21008;-68
2023/12/07 08:44:18;;;;;;;13.82;6.97;;;3.10;71.70;;;;;;2343099;55;21005;-67
2023/12/07 08:46:46;;;;;;;14.48;6.20;;;3.20;71.80;;;;;;2314414;54;20936;-66
2023/12/07 08:49:12;;;;;;;9.27;5.03;;;3.20;71.80;;;;;;2340452;54;20928;-66
2023/12/07 08:51:38;;;;;;;12.98;6.25;;;3.20;71.80;;;;;;2340613;54;21360;-67
2023/12/07 08:54:06;;;;;;;11.23;6.53;;;3.20;71.70;;;;;;2340305;55;20976;-66
2023/12/07 08:56:34;;;;;;;16.70;7.12;;;3.20;71.80;;;;;;2548881;53;20956;-67
2023/12/07 08:59:02;;;;;;;17.45;7.25;;;3.30;71.90;;;;;;2337866;54;21011;-67
2023/12/07 09:01:30;;;;;;;19.62;7.82;;;3.30;71.90;;;;;;2341440;54;20929;-67
2023/12/07 09:03:57;;;;;;;19.30;6.22;;;3.40;71.90;;;;;;2340476;54;20945;-66
2023/12/07 09:06:25;;;;;;;20.20;7.47;;;3.40;71.70;;;;;;2340688;54;21009;-67
2023/12/07 09:08:51;;;;;;;18.23;9.32;;;3.40;71.60;;;;;;2341117;55;21481;-66
2023/12/07 09:11:18;;;;;;;16.62;8.52;;;3.40;71.50;;;;;;2587109;53;21008;-67
2023/12/07 09:13:44;;;;;;;13.57;7.15;;;3.40;71.40;;;;;;2325240;54;21824;-67
2023/12/07 09:16:14;;;;;;;12.77;7.12;;;3.50;71.40;;;;;;2332598;54;21019;-66
2023/12/07 09:18:41;;;;;;;11.88;6.15;;;3.50;71.40;;;;;;2340886;55;21363;-66
2023/12/07 09:21:08;;;;;;;12.25;6.85;;;3.50;71.40;;;;;;2327171;54;20983;-66
2023/12/07 09:23:35;;;;;;;12.55;6.35;;;3.50;71.40;;;;;;2331207;54;20988;-66
2023/12/07 09:26:03;;;;;;;14.23;6.43;;;3.50;71.40;;;;;;2583805;53;21041;-66
2023/12/07 09:28:29;;;;;;;10.50;5.45;;;3.50;71.40;;;;;;2316346;54;20989;-66
2023/12/07 09:30:55;;;;;;;13.27;5.90;;;3.60;71.40;;;;;;2586686;53;21021;-67
2023/12/07 09:33:22;;;;;;;12.80;6.35;;;3.60;71.40;;;;;;2339878;54;21012;-68
2023/12/07 09:35:49;;;;;;;13.62;6.03;;;3.60;71.30;;;;;;2586670;53;21802;-67
2023/12/07 09:38:16;;;;;;;15.95;5.80;;;3.60;71.30;;;;;;2510259;54;20952;-68
2023/12/07 09:40:42;;;;;;;9.35;5.30;;;3.70;71.30;;;;;;2536065;54;21033;-67
2023/12/07 09:43:09;;;;;;;7.65;4.40;;;3.70;71.20;;;;;;2300169;54;21576;-68
2023/12/07 09:45:36;;;;;;;10.48;5.00;;;3.70;71.20;;;;;;2299947;54;21079;-67
2023/12/07 09:48:02;;;;;;;9.43;5.00;;;3.70;71.20;;;;;;2299677;54;22039;-67
2023/12/07 09:50:29;;;;;;;11.82;6.32;;;3.70;71.20;;;;;;2299529;54;21232;-66
2023/12/07 09:52:57;;;;;;;17.45;7.18;;;3.80;71.20;;;;;;2536970;54;21228;-69
2023/12/07 09:55:25;;;;;;;20.02;7.57;;;3.80;71.20;;;;;;2536478;54;21047;-67
2023/12/07 09:57:57;;;;;;;13.65;6.97;;;3.80;71.00;;;;;;2300110;55;21405;-67
2023/12/07 10:00:23;;;;;;;13.60;6.87;;;3.80;70.80;;;;;;2538003;53;21004;-69
2023/12/07 10:02:51;;;;;;;14.57;6.57;;;3.80;70.70;;;;;;2296983;55;20955;-68
2023/12/07 10:05:19;;;;;;;16.52;7.47;;;3.80;70.70;;;;;;2308742;55;20977;-67
2023/12/07 10:07:48;;;;;;;13.48;7.35;;;3.80;70.80;;;;;;2546843;54;21277;-66
2023/12/07 10:10:14;;;;;;;11.68;6.32;;;3.80;70.90;;;;;;2308401;55;20937;-68
2023/12/07 10:12:48;;;;;;;13.32;5.65;;;3.80;71.00;;;;;;2307942;54;20945;-67
2023/12/07 10:15:15;;;;;;;13.90;7.28;;;3.80;71.10;;;;;;2307934;55;21391;-68
2023/12/07 10:17:56;;;;;;;9.30;5.40;;;3.90;71.30;;;;;;2308418;54;21072;-67
2023/12/07 10:20:24;;;;;;;14.25;6.32;;;3.90;71.20;;;;;;2308399;55;20941;-66
2023/12/07 10:23:10;;;;;;;10.18;5.43;;;3.90;71.20;;;;;;2547018;53;20925;-68
2023/12/07 10:25:41;;;;;;;12.73;5.50;;;3.90;71.10;;;;;;2308218;54;20956;-66
2023/12/07 10:28:07;;;;;;;12.60;5.25;;;3.90;71.20;;;;;;2544167;53;20981;-67
2023/12/07 10:30:34;;;;;;;7.95;4.68;;;4.00;71.30;;;;;;2530410;53;21824;-66
2023/12/07 10:33:06;;;;;;;10.63;5.53;;;4.00;71.20;;;;;;2575518;53;20954;-67
2023/12/07 10:35:37;;;;;;;14.52;6.32;;;4.00;71.10;;;;;;2331128;55;21093;-67
2023/12/07 10:38:04;;;;;;;13.02;6.32;;;4.00;71.00;;;;;;2575454;53;21251;-66
2023/12/07 10:40:31;;;;;;;10.57;5.60;;;4.10;71.10;;;;;;2575555;53;21767;-67
2023/12/07 10:42:57;;;;;;;11.45;6.43;;;4.10;71.00;;;;;;2331473;55;21035;-67
2023/12/07 10:45:29;;;;;;;12.18;7.03;;;4.10;70.90;;;;;;2574992;53;21015;-66
2023/12/07 10:47:56;;;;;;;12.68;6.93;;;4.10;70.90;;;;;;2330606;55;20986;-68
2023/12/07 10:50:23;;;;;;;15.02;7.60;;;4.10;71.00;;;;;;2575765;53;20990;-67
2023/12/07 10:52:55;;;;;;;14.23;7.32;;;4.10;71.10;;;;;;2575281;53;21175;-66
2023/12/07 10:55:34;;;;;;;18.25;7.10;;;4.10;71.30;;;;;;2334314;55;21026;-66
2023/12/07 10:58:01;;;;;;;15.45;6.82;;;4.20;71.30;;;;;;2331674;54;21716;-69
2023/12/07 11:00:27;;;;;;;11.70;5.80;;;4.20;71.30;;;;;;2574865;53;20990;-66
2023/12/07 11:02:58;;;;;;;13.62;6.10;;;4.20;71.30;;;;;;2331209;54;20926;-66
2023/12/07 11:05:25;;;;;;;10.13;5.05;;;4.20;71.30;;;;;;2331717;54;21238;-67
2023/12/07 11:08:07;;;;;;;11.23;5.70;;;4.30;71.40;;;;;;2575176;53;20974;-69
2023/12/07 11:10:39;;;;;;;14.40;5.50;;;4.30;71.30;;;;;;2319825;54;20963;-68
2023/12/07 11:13:31;;;;;;;15.18;6.20;;;4.30;71.30;;;;;;2321593;54;20947;-69
2023/12/07 11:15:58;;;;;;;12.32;6.62;;;4.40;71.20;;;;;;2551816;53;20998;-69
2023/12/07 11:18:27;;;;;;;14.52;6.20;;;4.40;71.40;;;;;;2567505;53;21510;-67
2023/12/07 11:20:54;;;;;;;14.57;6.80;;;4.40;71.40;;;;;;2550980;53;21767;-67
2023/12/07 11:23:21;;;;;;;12.52;6.00;;;4.40;71.50;;;;;;2331910;55;21046;-69
2023/12/07 11:25:48;;;;;;;13.38;6.43;;;4.50;71.70;;;;;;2330792;55;20974;-68
2023/12/07 11:28:16;;;;;;;11.82;6.30;;;4.50;71.70;;;;;;2575151;53;21013;-68
2023/12/07 11:30:46;;;;;;;15.35;5.75;;;4.50;71.70;;;;;;2316216;54;21016;-67
2023/12/07 11:33:14;;;;;;;13.40;6.43;;;4.60;71.70;;;;;;2320921;54;20983;-67
2023/12/07 11:36:13;;;;;;;10.00;5.37;;;4.60;71.60;;;;;;2317648;54;20978;-67
2023/12/07 11:39:30;;;;;;;10.95;5.75;;;4.60;71.20;;;;;;2329132;54;21635;-67
2023/12/07 11:42:19;;;;;;;14.68;6.32;;;4.60;71.20;;;;;;2331991;54;20958;-69
2023/12/07 11:48:09;;;;;;;27.48;11.48;;;4.70;71.10;;;;;;2575927;53;21006;-68
2023/12/07 11:50:35;;;;;;;18.77;8.80;;;4.70;71.20;;;;;;2331097;54;21002;-67
2023/12/07 11:53:01;;;;;;;14.32;6.97;;;4.70;71.30;;;;;;2575220;53;21689;-68
2023/12/07 11:55:28;;;;;;;13.40;6.90;;;4.70;71.30;;;;;;2331394;55;21010;-71
2023/12/07 11:57:54;;;;;;;25.08;10.45;;;4.70;71.20;;;;;;2331538;55;20954;-70
2023/12/07 12:00:25;;;;;;;17.17;7.90;;;4.80;71.50;;;;;;2537298;53;20958;-69
2023/12/07 12:02:51;;;;;;;15.02;7.25;;;4.80;71.50;;;;;;2311508;54;21014;-68
2023/12/07 12:05:18;;;;;;;15.80;7.03;;;4.80;71.50;;;;;;2573737;53;21065;-68
2023/12/07 12:07:44;;;;;;;14.27;6.72;;;4.80;71.50;;;;;;2574309;53;20978;-68
2023/12/07 12:10:12;;;;;;;10.63;5.32;;;4.80;71.30;;;;;;2575373;53;21030;-71
2023/12/07 12:12:40;;;;;;;10.48;6.05;;;4.80;71.20;;;;;;2575407;53;20966;-69
2023/12/07 12:15:06;;;;;;;9.68;4.87;;;4.80;71.10;;;;;;2575789;53;21006;-68
2023/12/07 12:17:35;;;;;;;11.02;5.47;;;4.80;71.10;;;;;;2574055;53;20946;-68
2023/12/07 12:20:02;;;;;;;10.80;5.07;;;4.90;71.20;;;;;;2331844;55;20947;-69
2023/12/07 12:22:29;;;;;;;12.48;6.28;;;4.90;71.20;;;;;;2320165;54;21031;-68
2023/12/07 12:24:56;;;;;;;17.20;6.50;;;4.90;71.20;;;;;;2305194;54;21000;-70
2023/12/07 12:27:24;;;;;;;10.93;5.72;;;4.90;71.20;;;;;;2574000;53;20994;-68
2023/12/07 12:29:50;;;;;;;14.43;7.07;;;4.90;71.30;;;;;;2575156;53;21089;-67
2023/12/07 12:32:17;;;;;;;13.52;6.95;;;4.90;71.30;;;;;;2331621;54;22139;-71
2023/12/07 12:35:07;;;;;;;13.45;7.37;;;4.90;71.30;;;;;;2575714;53;21535;-73
2023/12/07 12:37:33;;;;;;;11.48;5.87;;;4.90;71.20;;;;;;2574855;53;20936;-71
2023/12/07 12:40:06;;;;;;;12.63;6.75;;;5.00;71.40;;;;;;2331902;54;20974;-68
2023/12/07 12:42:32;;;;;;;;;;;5.00;71.40;;;;;;2335697;55;20978;-67
2023/12/07 12:44:59;;;;;;;12.27;6.03;;;5.00;70.80;;;;;;2332067;55;20437;-68
2023/12/07 12:47:25;;;;;;;17.60;7.00;;;5.00;71.20;;;;;;2332057;55;20955;-68
2023/12/07 12:49:52;;;;;;;11.57;6.05;;;5.00;71.20;;;;;;2332275;54;20920;-68
2023/12/07 12:52:25;;;;;;;12.55;5.82;;;5.00;71.20;;;;;;2332001;55;21168;-71
2023/12/07 12:54:51;;;;;;;14.70;6.60;;;5.00;71.30;;;;;;2543173;53;20966;-68
2023/12/07 12:57:19;;;;;;;10.13;5.22;;;5.00;71.40;;;;;;2332100;55;20962;-68
2023/12/07 12:59:48;;;;;;;10.20;5.70;;;5.10;71.50;;;;;;2331793;54;20958;-69
2023/12/07 13:02:14;;;;;;;13.38;6.75;;;5.10;71.60;;;;;;2576118;53;20990;-69